createdAt,value
2017-11-30T00:02:25.228Z,90.76
2017-11-30T00:04:59.813Z,90.68
2017-11-30T00:07:34.278Z,90.75
2017-11-30T00:10:13.937Z,90.73
2017-11-30T00:12:48.376Z,90.66
2017-11-30T00:15:23.038Z,89.87
2017-11-30T00:17:57.436Z,89.44
2017-11-30T00:20:31.773Z,89.75
2017-11-30T00:23:06.154Z,89.92
2017-11-30T00:25:40.324Z,90.00
2017-11-30T00:28:14.495Z,89.84
2017-11-30T00:30:48.885Z,88.83
2017-11-30T00:33:23.184Z,89.39
2017-11-30T00:35:57.361Z,89.64
2017-11-30T00:38:31.908Z,89.67
2017-11-30T00:41:06.331Z,89.90
2017-11-30T00:43:40.876Z,89.31
2017-11-30T00:46:15.162Z,89.28
2017-11-30T00:48:49.546Z,89.25
2017-11-30T00:51:24.017Z,89.11
2017-11-30T00:53:58.458Z,89.35
2017-11-30T00:56:32.947Z,89.65
2017-11-30T00:59:07.369Z,89.46
2017-11-30T01:01:41.847Z,89.42
2017-11-30T01:04:16.412Z,88.80
2017-11-30T01:06:50.888Z,88.74
2017-11-30T01:09:25.415Z,88.72
2017-11-30T01:11:59.885Z,88.70
2017-11-30T01:14:34.439Z,87.85
2017-11-30T01:17:08.853Z,87.61
2017-11-30T01:19:43.496Z,87.95
2017-11-30T01:22:17.859Z,87.87
2017-11-30T01:24:52.452Z,88.53
2017-11-30T01:27:27.171Z,88.95
2017-11-30T01:30:01.600Z,88.74
2017-11-30T01:32:35.974Z,88.67
2017-11-30T01:35:10.355Z,88.77
2017-11-30T01:37:44.843Z,88.67
2017-11-30T01:40:19.268Z,88.81
2017-11-30T01:42:53.840Z,89.48
2017-11-30T01:45:28.219Z,89.48
2017-11-30T01:48:02.834Z,89.28
2017-11-30T01:50:37.383Z,88.56
2017-11-30T01:53:11.891Z,89.04
2017-11-30T01:55:45.936Z,89.13
2017-11-30T01:58:20.360Z,89.16
2017-11-30T02:00:54.620Z,89.17
2017-11-30T02:03:29.076Z,89.72
2017-11-30T02:06:03.579Z,89.98
2017-11-30T02:08:38.067Z,90.06
2017-11-30T02:11:12.466Z,90.32
2017-11-30T02:13:46.990Z,90.08
2017-11-30T02:16:21.462Z,88.27
2017-11-30T02:18:56.061Z,88.20
2017-11-30T02:21:30.331Z,88.57
2017-11-30T02:24:04.871Z,87.83
2017-11-30T02:26:39.219Z,88.58
2017-11-30T02:29:13.721Z,88.92
2017-11-30T02:31:48.054Z,88.96
2017-11-30T02:34:22.215Z,89.57
2017-11-30T02:36:56.315Z,89.73
2017-11-30T02:39:30.837Z,89.75
2017-11-30T02:42:04.944Z,89.48
2017-11-30T02:44:39.483Z,89.39
2017-11-30T02:47:13.684Z,88.45
2017-11-30T02:49:47.800Z,87.89
2017-11-30T02:52:21.883Z,87.50
2017-11-30T02:54:56.284Z,87.77
2017-11-30T02:57:30.347Z,88.24
2017-11-30T03:02:44.643Z,88.85
2017-11-30T03:05:18.699Z,88.74
2017-11-30T03:07:52.897Z,88.84
2017-11-30T03:10:26.969Z,87.57
2017-11-30T03:13:01.491Z,86.21
2017-11-30T03:15:36.248Z,85.81
2017-11-30T03:18:10.764Z,86.33
2017-11-30T03:20:45.143Z,87.14
2017-11-30T03:23:19.703Z,88.14
2017-11-30T03:25:53.578Z,88.78
2017-11-30T03:28:27.897Z,89.94
2017-11-30T03:31:02.308Z,90.46
2017-11-30T03:33:36.829Z,91.08
2017-11-30T03:36:11.575Z,91.19
2017-11-30T03:38:46.223Z,91.39
2017-11-30T03:41:20.734Z,91.19
2017-11-30T03:43:55.243Z,91.22
2017-11-30T03:46:29.691Z,91.38
2017-11-30T03:49:04.291Z,91.85
2017-11-30T03:51:38.775Z,91.72
2017-11-30T03:54:13.320Z,91.43
2017-11-30T03:56:47.795Z,91.35
2017-11-30T03:59:22.426Z,91.35
2017-11-30T04:01:56.751Z,90.73
2017-11-30T04:04:31.097Z,90.88
2017-11-30T04:07:05.284Z,90.95
2017-11-30T04:09:39.763Z,91.03
2017-11-30T04:12:14.143Z,91.26
2017-11-30T04:14:48.583Z,91.30
2017-11-30T04:17:23.016Z,91.33
2017-11-30T04:19:57.779Z,91.49
2017-11-30T04:22:32.155Z,91.50
2017-11-30T04:25:11.676Z,91.46
2017-11-30T04:27:46.169Z,91.56
2017-11-30T04:30:20.569Z,91.85
2017-11-30T04:32:55.083Z,92.08
2017-11-30T04:35:29.612Z,92.06
2017-11-30T04:38:04.091Z,92.00
2017-11-30T04:40:38.731Z,92.01
2017-11-30T04:43:13.120Z,92.27
2017-11-30T04:45:47.500Z,92.83
2017-11-30T04:48:21.991Z,93.24
2017-11-30T04:50:56.468Z,93.20
2017-11-30T04:53:30.894Z,93.11
2017-11-30T04:56:05.392Z,93.22
2017-11-30T04:58:40.496Z,93.68
2017-11-30T05:01:14.919Z,93.83
2017-11-30T05:03:49.437Z,93.93
2017-11-30T05:06:23.811Z,94.11
2017-11-30T05:08:58.087Z,93.96
2017-11-30T05:11:32.475Z,94.11
2017-11-30T05:14:07.051Z,94.49
2017-11-30T05:16:41.467Z,95.18
2017-11-30T05:19:15.915Z,95.60
2017-11-30T05:21:50.312Z,95.85
2017-11-30T05:24:24.668Z,96.08
2017-11-30T05:26:59.068Z,96.16
2017-11-30T05:29:33.756Z,96.06
2017-11-30T05:32:08.012Z,96.13
2017-11-30T05:34:42.437Z,95.89
2017-11-30T05:37:16.927Z,96.06
2017-11-30T05:39:51.519Z,96.33
2017-11-30T05:42:25.955Z,96.53
2017-11-30T05:45:00.307Z,96.67
2017-11-30T05:47:34.787Z,96.56
2017-11-30T05:50:14.140Z,96.41
2017-11-30T05:52:48.755Z,96.39
2017-11-30T05:55:23.151Z,96.51
2017-11-30T05:57:57.659Z,96.60
2017-11-30T06:00:32.034Z,96.71
2017-11-30T06:03:06.523Z,96.79
2017-11-30T06:05:40.935Z,97.01
2017-11-30T06:08:15.371Z,97.00
2017-11-30T06:10:49.738Z,96.73
2017-11-30T06:13:24.245Z,96.66
2017-11-30T06:15:58.663Z,96.75
2017-11-30T06:18:33.032Z,96.86
2017-11-30T06:21:07.390Z,96.84
2017-11-30T06:23:41.916Z,96.73
2017-11-30T06:26:16.327Z,96.85
2017-11-30T06:28:50.871Z,97.05
2017-11-30T06:31:25.031Z,97.03
2017-11-30T06:33:59.353Z,96.95
2017-11-30T06:36:33.745Z,96.61
2017-11-30T06:39:08.244Z,96.54
2017-11-30T06:41:43.423Z,96.66
2017-11-30T06:44:17.985Z,96.70
2017-11-30T06:46:52.263Z,96.71
2017-11-30T06:49:26.758Z,96.72
2017-11-30T06:52:00.944Z,96.82
2017-11-30T06:54:35.466Z,96.93
2017-11-30T06:57:09.871Z,96.98
2017-11-30T06:59:44.415Z,97.28
2017-11-30T07:02:19.675Z,97.34
2017-11-30T07:04:54.127Z,97.34
2017-11-30T07:07:28.521Z,97.29
2017-11-30T07:10:06.222Z,96.82
2017-11-30T07:12:40.772Z,96.79
2017-11-30T07:15:15.271Z,96.58
2017-11-30T07:17:49.789Z,96.61
2017-11-30T07:20:24.160Z,96.57
2017-11-30T07:22:58.645Z,96.85
2017-11-30T07:25:33.417Z,96.58
2017-11-30T07:28:07.919Z,96.65
2017-11-30T07:30:42.103Z,96.55
2017-11-30T07:33:16.447Z,96.33
2017-11-30T07:35:50.952Z,96.36
2017-11-30T07:38:25.467Z,96.29
2017-11-30T07:40:59.931Z,96.03
2017-11-30T07:43:34.460Z,95.96
2017-11-30T07:46:08.820Z,95.91
2017-11-30T07:48:43.212Z,95.99
2017-11-30T07:51:17.619Z,96.14
2017-11-30T07:53:52.227Z,96.24
2017-11-30T07:56:26.794Z,96.17
2017-11-30T07:59:01.164Z,96.29
2017-11-30T08:01:35.567Z,96.26
2017-11-30T08:04:09.781Z,96.29
2017-11-30T08:06:44.220Z,95.97
2017-11-30T08:09:18.568Z,95.71
2017-11-30T08:11:53.012Z,95.88
2017-11-30T08:14:27.517Z,95.80
2017-11-30T08:17:01.945Z,95.71
2017-11-30T08:19:36.369Z,95.55
2017-11-30T08:22:10.744Z,95.80
2017-11-30T08:24:45.308Z,95.57
2017-11-30T08:27:20.423Z,95.68
2017-11-30T08:29:54.672Z,95.30
2017-11-30T08:32:29.576Z,95.11
2017-11-30T08:35:04.256Z,94.89
2017-11-30T08:37:38.683Z,95.13
2017-11-30T08:40:13.185Z,95.02
2017-11-30T08:42:47.676Z,95.14
2017-11-30T08:45:22.066Z,95.16
2017-11-30T08:47:56.464Z,95.28
2017-11-30T08:50:30.572Z,95.34
2017-11-30T08:53:05.097Z,95.12
2017-11-30T08:55:39.121Z,94.98
2017-11-30T08:58:13.633Z,94.85
2017-11-30T09:00:48.026Z,94.75
2017-11-30T09:03:22.623Z,94.79
2017-11-30T09:05:57.044Z,94.80
2017-11-30T09:08:31.515Z,94.48
2017-11-30T09:11:05.976Z,94.12
2017-11-30T09:13:40.544Z,94.39
2017-11-30T09:16:14.869Z,94.42
2017-11-30T09:18:49.295Z,94.37
2017-11-30T09:21:23.883Z,94.29
2017-11-30T09:23:58.327Z,94.40
2017-11-30T09:26:32.822Z,94.58
2017-11-30T09:29:07.305Z,94.21
2017-11-30T09:31:41.891Z,94.02
2017-11-30T09:34:16.357Z,94.10
2017-11-30T09:36:50.932Z,94.37
2017-11-30T09:39:25.289Z,93.90
2017-11-30T09:41:59.699Z,93.57
2017-11-30T09:44:34.190Z,93.60
2017-11-30T09:47:08.571Z,93.70
2017-11-30T09:49:43.105Z,93.09
2017-11-30T09:52:17.471Z,93.20
2017-11-30T09:54:51.868Z,93.14
2017-11-30T09:57:26.096Z,92.80
2017-11-30T10:00:01.104Z,92.99
2017-11-30T10:02:35.847Z,92.85
2017-11-30T10:05:10.203Z,93.19
2017-11-30T10:07:44.826Z,92.80
2017-11-30T10:10:19.184Z,92.79
2017-11-30T10:12:53.781Z,92.99
2017-11-30T10:15:28.177Z,92.73
2017-11-30T10:18:02.640Z,92.40
2017-11-30T10:20:37.148Z,92.59
2017-11-30T10:23:11.559Z,92.66
2017-11-30T10:25:46.036Z,92.45
2017-11-30T10:28:20.592Z,92.72
2017-11-30T10:30:55.379Z,92.83
2017-11-30T10:33:29.886Z,92.92
2017-11-30T10:36:04.876Z,92.63
2017-11-30T10:38:39.250Z,92.79
2017-11-30T10:41:14.122Z,92.78
2017-11-30T10:43:49.483Z,92.97
2017-11-30T10:46:24.031Z,92.69
2017-11-30T10:48:58.508Z,92.62
2017-11-30T10:51:33.011Z,92.36
2017-11-30T10:54:07.492Z,92.54
2017-11-30T10:56:41.986Z,92.55
2017-11-30T10:59:16.463Z,92.65
2017-11-30T11:01:50.846Z,92.84
2017-11-30T11:04:25.423Z,92.54
2017-11-30T11:06:59.847Z,92.73
2017-11-30T11:09:34.351Z,92.45
2017-11-30T11:12:09.523Z,92.93
2017-11-30T11:14:43.885Z,93.35
2017-11-30T11:17:18.283Z,93.09
2017-11-30T11:19:52.771Z,92.99
2017-11-30T11:22:27.173Z,92.91
2017-11-30T11:25:01.833Z,92.86
2017-11-30T11:27:36.202Z,93.33
2017-11-30T11:30:10.987Z,93.34
2017-11-30T11:32:45.492Z,93.23
2017-11-30T11:35:19.878Z,93.34
2017-11-30T11:37:54.491Z,92.90
2017-11-30T11:40:29.138Z,92.75
2017-11-30T11:43:03.535Z,92.84
2017-11-30T11:45:37.939Z,92.78
2017-11-30T11:48:12.429Z,92.26
2017-11-30T11:50:46.815Z,92.46
2017-11-30T11:53:21.357Z,92.80
2017-11-30T11:55:55.731Z,92.42
2017-11-30T11:58:30.238Z,92.02
2017-11-30T12:01:04.584Z,92.43
2017-11-30T12:03:39.100Z,92.24
2017-11-30T12:06:13.440Z,92.04
2017-11-30T12:08:47.943Z,92.33
2017-11-30T12:11:22.773Z,92.54
2017-11-30T12:13:57.253Z,92.66
2017-11-30T12:16:31.676Z,93.35
2017-11-30T12:19:06.193Z,93.21
2017-11-30T12:21:40.949Z,93.22
2017-11-30T12:24:15.528Z,93.19
2017-11-30T12:26:49.928Z,93.67
2017-11-30T12:29:24.436Z,93.73
2017-11-30T12:31:58.828Z,93.84
2017-11-30T12:34:33.386Z,93.69
2017-11-30T12:37:07.870Z,93.70
2017-11-30T12:39:42.500Z,93.04
2017-11-30T12:42:16.874Z,93.55
2017-11-30T12:44:52.287Z,93.58
2017-11-30T12:47:26.791Z,94.09
2017-11-30T12:50:01.405Z,93.74
2017-11-30T12:52:36.007Z,93.96
2017-11-30T12:55:10.356Z,93.85
2017-11-30T12:57:44.858Z,94.15
2017-11-30T13:00:19.126Z,94.64
2017-11-30T13:02:53.474Z,94.64
2017-11-30T13:05:27.634Z,94.84
2017-11-30T13:08:02.240Z,94.72
2017-11-30T13:10:36.357Z,94.87
2017-11-30T13:13:10.833Z,94.56
2017-11-30T13:15:45.008Z,94.45
2017-11-30T13:18:19.364Z,94.91
2017-11-30T13:20:53.964Z,94.83
2017-11-30T13:23:28.420Z,94.98
2017-11-30T13:26:02.774Z,94.49
2017-11-30T13:28:37.267Z,94.75
2017-11-30T13:31:11.722Z,94.72
2017-11-30T13:33:46.118Z,94.92
2017-11-30T13:36:20.477Z,94.38
2017-11-30T13:38:55.093Z,93.98
2017-11-30T13:41:29.498Z,94.25
2017-11-30T13:44:03.993Z,94.28
2017-11-30T13:46:38.364Z,93.77
2017-11-30T13:49:12.821Z,94.18
2017-11-30T13:51:47.276Z,93.67
2017-11-30T13:54:21.800Z,93.66
2017-11-30T13:56:56.198Z,93.33
2017-11-30T13:59:30.646Z,93.53
2017-11-30T14:02:05.020Z,93.07
2017-11-30T14:04:39.614Z,93.23
2017-11-30T14:07:14.213Z,92.72
2017-11-30T14:09:48.562Z,93.14
2017-11-30T14:12:23.007Z,93.04
2017-11-30T14:14:57.594Z,92.96
2017-11-30T14:17:32.098Z,93.66
2017-11-30T14:20:06.658Z,93.45
2017-11-30T14:22:41.278Z,93.41
2017-11-30T14:25:15.862Z,93.08
2017-11-30T14:27:50.359Z,92.63
2017-11-30T14:30:24.758Z,92.74
2017-11-30T14:32:59.354Z,93.21
2017-11-30T14:35:33.801Z,93.83
2017-11-30T14:38:08.305Z,93.66
2017-11-30T14:40:42.682Z,94.04
2017-11-30T14:43:17.431Z,94.00
2017-11-30T14:45:51.967Z,93.91
2017-11-30T14:48:26.535Z,94.09
2017-11-30T14:51:01.018Z,94.17
2017-11-30T14:53:35.595Z,93.98
2017-11-30T14:56:10.033Z,94.02
2017-11-30T14:58:45.250Z,93.78
2017-11-30T15:01:19.783Z,93.44
2017-11-30T15:03:54.296Z,93.25
2017-11-30T15:06:28.717Z,93.00
2017-11-30T15:09:03.267Z,92.35
2017-11-30T15:11:39.181Z,91.72
2017-11-30T15:14:13.702Z,92.17
2017-11-30T15:16:48.074Z,91.60
2017-11-30T15:19:22.622Z,91.04
2017-11-30T15:21:57.114Z,90.58
2017-11-30T15:24:31.610Z,89.91
2017-11-30T15:27:05.985Z,89.24
2017-11-30T15:29:40.373Z,90.02
2017-11-30T15:32:14.772Z,89.37
2017-11-30T15:34:49.328Z,89.45
2017-11-30T15:37:23.730Z,89.06
2017-11-30T15:39:58.082Z,89.00
2017-11-30T15:42:32.481Z,89.18
2017-11-30T15:45:07.183Z,88.75
2017-11-30T15:47:41.706Z,89.69
2017-11-30T15:50:16.240Z,89.54
2017-11-30T15:52:50.674Z,89.26
2017-11-30T15:55:25.497Z,89.42
2017-11-30T15:57:59.965Z,88.50
2017-11-30T16:00:34.341Z,88.04
2017-11-30T16:03:08.934Z,87.95
2017-11-30T16:05:43.370Z,86.59
2017-11-30T16:08:17.954Z,86.61
2017-11-30T16:10:52.497Z,86.82
2017-11-30T16:13:27.675Z,86.14
2017-11-30T16:16:02.198Z,85.84
2017-11-30T16:18:37.318Z,84.89
2017-11-30T16:21:12.506Z,85.86
2017-11-30T16:23:47.013Z,84.68
2017-11-30T16:26:21.447Z,84.73
2017-11-30T16:28:56.042Z,84.58
2017-11-30T16:31:30.450Z,85.10
2017-11-30T16:34:04.977Z,84.23
2017-11-30T16:36:39.397Z,84.68
2017-11-30T16:39:13.794Z,84.39
2017-11-30T16:41:48.270Z,84.12
2017-11-30T16:44:22.718Z,84.74
2017-11-30T16:46:57.087Z,84.62
2017-11-30T16:49:31.454Z,83.48
2017-11-30T16:52:05.878Z,84.15
2017-11-30T16:54:40.202Z,83.69
2017-11-30T16:57:15.684Z,84.02
2017-11-30T16:59:50.235Z,84.20
2017-11-30T17:02:24.626Z,83.31
2017-11-30T17:04:59.107Z,84.08
2017-11-30T17:07:33.338Z,84.14
2017-11-30T17:10:07.791Z,84.10
2017-11-30T17:12:42.362Z,84.47
2017-11-30T17:15:17.582Z,84.73
2017-11-30T17:17:52.139Z,85.50
2017-11-30T17:20:26.722Z,85.68
2017-11-30T17:23:01.202Z,85.44
2017-11-30T17:25:35.638Z,85.95
2017-11-30T17:28:10.194Z,86.11
2017-11-30T17:30:44.763Z,85.92
2017-11-30T17:33:19.254Z,85.68
2017-11-30T17:35:53.640Z,85.45
2017-11-30T17:38:28.002Z,85.74
2017-11-30T17:41:02.890Z,85.75
2017-11-30T17:43:37.302Z,85.37
2017-11-30T17:46:11.881Z,85.28
2017-11-30T17:48:46.318Z,85.40
2017-11-30T17:51:23.711Z,85.49
2017-11-30T17:53:58.310Z,85.12
2017-11-30T17:56:32.750Z,84.96
2017-11-30T17:59:07.278Z,84.87
2017-11-30T18:01:41.635Z,84.39
2017-11-30T18:04:16.290Z,84.22
2017-11-30T18:06:50.854Z,83.92
2017-11-30T18:09:25.346Z,83.98
2017-11-30T18:11:59.809Z,83.74
2017-11-30T18:14:34.337Z,83.87
2017-11-30T18:17:09.041Z,83.20
2017-11-30T18:19:43.418Z,82.71
2017-11-30T18:22:17.770Z,83.00
2017-11-30T18:24:52.347Z,82.79
2017-11-30T18:27:26.804Z,82.79
2017-11-30T18:30:01.283Z,82.38
2017-11-30T18:32:35.703Z,82.38
2017-11-30T18:35:10.135Z,81.57
2017-11-30T18:37:44.294Z,82.18
2017-11-30T18:40:18.475Z,81.04
2017-11-30T18:42:52.979Z,81.31
2017-11-30T18:45:27.721Z,81.09
2017-11-30T18:48:02.104Z,81.00
2017-11-30T18:50:36.442Z,80.64
2017-11-30T18:53:11.027Z,80.50
2017-11-30T18:55:45.658Z,80.54
2017-11-30T18:58:20.177Z,79.52
2017-11-30T19:00:54.677Z,79.84
2017-11-30T19:03:29.898Z,80.15
2017-11-30T19:06:04.410Z,79.37
2017-11-30T19:08:38.947Z,79.32
2017-11-30T19:11:14.155Z,79.45
2017-11-30T19:13:48.633Z,79.51
2017-11-30T19:16:23.131Z,78.93
2017-11-30T19:18:57.715Z,79.26
2017-11-30T19:21:32.068Z,78.89
2017-11-30T19:24:06.592Z,79.30
2017-11-30T19:26:40.979Z,78.94
2017-11-30T19:29:15.582Z,79.53
2017-11-30T19:31:52.126Z,79.16
2017-11-30T19:34:26.542Z,79.23
2017-11-30T19:37:02.655Z,78.49
2017-11-30T19:39:37.271Z,78.03
2017-11-30T19:42:11.655Z,78.40
2017-11-30T19:44:46.165Z,78.16
2017-11-30T19:47:21.580Z,78.12
2017-11-30T19:49:56.790Z,78.20
2017-11-30T19:52:31.305Z,78.54
2017-11-30T19:55:05.744Z,77.88
2017-11-30T19:57:40.898Z,77.89
2017-11-30T20:00:15.415Z,77.27
2017-11-30T20:02:49.828Z,77.36
2017-11-30T20:05:24.700Z,77.00
2017-11-30T20:07:59.195Z,76.87
2017-11-30T20:10:33.672Z,76.29
2017-11-30T20:13:08.178Z,76.63
2017-11-30T20:15:42.564Z,76.97
2017-11-30T20:18:17.064Z,76.37
2017-11-30T20:20:53.062Z,76.44
2017-11-30T20:23:27.686Z,75.89
2017-11-30T20:26:02.133Z,75.89
2017-11-30T20:28:36.794Z,76.34
2017-11-30T20:31:11.422Z,77.09
2017-11-30T20:33:46.243Z,77.01
2017-11-30T20:36:20.743Z,77.22
2017-11-30T20:38:55.298Z,77.12
2017-11-30T20:41:29.691Z,76.92
2017-11-30T20:44:04.153Z,76.95
2017-11-30T20:46:41.098Z,77.20
2017-11-30T20:49:18.371Z,76.80
2017-11-30T20:51:57.694Z,77.32
2017-11-30T20:54:34.210Z,76.55
2017-11-30T20:57:08.771Z,76.68
2017-11-30T20:59:43.238Z,76.30
2017-11-30T21:02:17.723Z,76.24
2017-11-30T21:04:52.236Z,76.37
2017-11-30T21:07:27.405Z,76.42
2017-11-30T21:10:01.871Z,76.27
2017-11-30T21:12:40.424Z,76.76
2017-11-30T21:15:15.055Z,77.08
2017-11-30T21:17:49.546Z,76.48
2017-11-30T21:20:23.993Z,76.03
2017-11-30T21:22:58.419Z,75.72
2017-11-30T21:25:32.917Z,75.75
2017-11-30T21:28:07.414Z,76.22
2017-11-30T21:30:41.906Z,75.61
2017-11-30T21:33:16.433Z,76.01
2017-11-30T21:35:50.790Z,75.87
2017-11-30T21:38:25.459Z,75.60
2017-11-30T21:40:59.889Z,75.21
2017-11-30T21:43:34.259Z,75.45
2017-11-30T21:46:08.651Z,76.09
2017-11-30T21:48:43.222Z,74.74
2017-11-30T21:51:20.375Z,74.34
2017-11-30T21:53:55.001Z,73.58
2017-11-30T21:56:29.397Z,73.51
2017-11-30T21:59:03.898Z,74.18
2017-11-30T22:01:38.282Z,73.67
2017-11-30T22:04:13.013Z,74.35
2017-11-30T22:06:47.622Z,75.15
2017-11-30T22:09:22.113Z,75.63
2017-11-30T22:11:56.562Z,76.73
2017-11-30T22:14:31.195Z,76.84
2017-11-30T22:17:06.218Z,76.73
2017-11-30T22:19:40.606Z,76.70
2017-11-30T22:22:21.918Z,77.31
2017-11-30T22:24:56.509Z,76.75
2017-11-30T22:27:33.007Z,76.94
2017-11-30T22:30:07.525Z,76.43
2017-11-30T22:32:42.088Z,76.49
2017-11-30T22:35:16.546Z,76.41
2017-11-30T22:37:51.060Z,76.23
2017-11-30T22:40:25.514Z,76.45
2017-11-30T22:43:00.074Z,76.59
2017-11-30T22:45:34.839Z,77.23
2017-11-30T22:48:09.378Z,77.28
2017-11-30T22:50:43.498Z,77.01
2017-11-30T22:53:18.019Z,77.19
2017-11-30T22:55:52.378Z,77.17
2017-11-30T22:58:27.257Z,76.78
2017-11-30T23:01:02.006Z,76.71
2017-11-30T23:03:36.425Z,76.52
2017-11-30T23:06:10.866Z,76.86
2017-11-30T23:08:45.499Z,76.64
2017-11-30T23:11:21.064Z,76.34
2017-11-30T23:13:55.565Z,76.60
2017-11-30T23:16:30.014Z,76.54
2017-11-30T23:19:04.399Z,76.66
2017-11-30T23:21:38.799Z,77.04
2017-11-30T23:24:12.837Z,77.24
2017-11-30T23:26:47.244Z,77.42
2017-11-30T23:29:22.393Z,77.23
2017-11-30T23:31:56.666Z,77.49
2017-11-30T23:34:31.293Z,76.89
2017-11-30T23:37:06.310Z,76.63
2017-11-30T23:39:40.898Z,77.22
2017-11-30T23:42:15.119Z,77.30
2017-11-30T23:44:49.640Z,76.89
2017-11-30T23:47:24.051Z,77.16
2017-11-30T23:49:58.507Z,77.32
2017-11-30T23:52:32.884Z,77.56
2017-11-30T23:55:07.493Z,78.47
2017-11-30T23:57:41.922Z,78.36
